Flight Track Log - Related Links

Times and Time Zones

All times are in EDT time to prevent confusion due to time zone crossing. See the N575MD flight status page for this flight to view local times or setup timezone preferences in your user account.

Time Position Orientation Groundspeed Altitude Reporting Facility
EDT Latitude Longitude Course Direction KTS MPH feet Rate Location/Type
Mon 11:29:25 PM 32.4506 -91.8303 119° Southeast 149 171 3,300  Level Fort Worth Center
Mon 11:30:25 PM 32.4406 -91.7892 106° East 143 165 3,600 400 Climbing Fort Worth Center
Mon 11:31:25 PM 32.4181 -91.7561 129° Southeast 138 159 4,100 450 Climbing Fort Worth Center
Mon 11:32:25 PM 32.3978 -91.7206 124° Southeast 133 153 4,500 318 Climbing Fort Worth Center
Mon 11:33:56 PM 32.3686 -91.6756 127° Southeast 131 151 4,900 159 Climbing Memphis Center
Mon 11:34:00 PM 32.3932 -91.7824 119° Southeast  Level FlightAware Approximate
Mon 11:34:56 PM 32.3503 -91.6311 116° Southeast 126 145 4,900  Level Memphis Center
Mon 11:35:56 PM 32.3297 -91.5939 123° Southeast 133 153 5,000 129 Climbing Memphis Center
Mon 11:36:29 PM 32.3197 -91.5769 125° Southeast 134 154 5,100 64 Climbing Houston Center
Mon 11:37:30 PM 32.3000 -91.5367 120° Southeast 136 157 5,100 -49 Level Houston Center
Mon 11:38:31 PM 32.2794 -91.4953 120° Southeast 140 161 5,000 -49 Descending Houston Center
Mon 11:39:32 PM 32.2575 -91.4500 120° Southeast 143 165 5,000  Level Houston Center
Mon 11:40:32 PM 32.2389 -91.4117 120° Southeast 145 167 5,000  Level Houston Center
Mon 11:41:33 PM 32.2142 -91.3644 122° Southeast 144 166 5,000  Level Houston Center
Mon 11:42:34 PM 32.1950 -91.3239 119° Southeast 142 163 5,000 49 Level Houston Center
Mon 11:43:35 PM 32.1806 -91.2950 121° Southeast 139 160 5,100 49 Climbing Houston Center
Mon 11:44:36 PM 32.1628 -91.2567 119° Southeast 137 158 5,100 -30 Level Houston Center
Mon 11:46:56 PM 32.1100 -91.1519 121° Southeast 149 171 5,000  Descending Memphis Center
Mon 11:47:26 PM 32.0975 -91.1311 125° Southeast 138 159 5,100 66 Climbing Houston Center
Mon 11:48:27 PM 32.0778 -91.0897 119° Southeast 132 152 5,100  Level Houston Center
Mon 11:49:27 PM 32.0583 -91.0517 121° Southeast 136 157 5,100  Level Houston Center
Mon 11:50:28 PM 32.0428 -91.0139 116° Southeast 136 157 5,100  Level Houston Center
Mon 11:51:29 PM 32.0225 -90.9753 122° Southeast 135 155 5,100  Level Houston Center
Mon 11:52:29 PM 32.0044 -90.9378 120° Southeast 135 155 5,100  Level Houston Center
Mon 11:54:56 PM 31.9467 -90.8275 122° Southeast 148 170 5,100  Level Memphis Center
Mon 11:55:56 PM 31.9281 -90.7856 118° Southeast 148 170 5,100  Level Memphis Center
Mon 11:56:56 PM 31.9031 -90.7414 124° Southeast 148 170 5,100  Level Memphis Center
Mon 11:57:56 PM 31.8844 -90.7022 119° Southeast 148 170 5,100  Level Memphis Center
Mon 11:58:56 PM 31.8636 -90.6631 122° Southeast 148 170 5,100  Level Memphis Center
Mon 11:59:56 PM 31.8428 -90.6189 119° Southeast 148 170 5,100  Level Memphis Center
Tue 12:00:56 AM 31.8200 -90.5775 123° Southeast 148 170 5,100  Level Memphis Center
Tue 12:01:56 AM 31.8014 -90.5383 119° Southeast 148 170 5,100  Level Memphis Center
Tue 12:02:56 AM 31.7806 -90.4967 120° Southeast 148 170 5,100  Level Memphis Center
Tue 12:03:56 AM 31.7597 -90.4525 119° Southeast 148 170 5,100  Level Memphis Center
Tue 12:04:13 AM 31.7519 -90.4431 134° Southeast 140 161 5,100  Level Houston Center
Tue 12:05:13 AM 31.7322 -90.4022 120° Southeast 144 166 5,100 -50 Level Houston Center
Tue 12:06:14 AM 31.7108 -90.3603 121° Southeast 146 168 5,000 -50 Descending Houston Center
Tue 12:07:14 AM 31.6892 -90.3186 121° Southeast 147 169 5,000  Level Houston Center
Tue 12:09:00 AM 31.6391 -90.2571 134° Southeast  Level FlightAware Approximate
Tue 12:13:29 AM 31.5614 -90.0658 120° Southeast 155 178 5,000  Level Houston Center
Tue 12:14:30 AM 31.5394 -90.0303 126° Southeast 136 157 5,000  Level Houston Center
Tue 12:15:30 AM 31.5186 -89.9878 120° Southeast 141 162 5,000  Level Houston Center
Tue 12:16:00 AM 31.4920 -89.9659 120° Southeast  Level FlightAware Approximate
Tue 12:16:31 AM 31.4975 -89.9467 121° Southeast 146 168 5,000  Level Houston Center
Tue 12:17:00 AM 31.4713 -89.9245 120° Southeast  Level FlightAware Approximate
Tue 12:17:31 AM 31.4761 -89.9078 123° Southeast 144 166 5,000  Level Houston Center
Tue 12:18:00 AM 31.4506 -89.8830 120° Southeast  Level FlightAware Approximate
Tue 12:18:32 AM 31.4558 -89.8664 120° Southeast 146 168 5,000  Level Houston Center
Tue 12:19:32 AM 31.4289 -89.8300 131° Southeast 146 168 5,000  Level Houston Center
Tue 12:20:33 AM 31.4003 -89.7958 134° Southeast 147 169 5,000  Level Houston Center
Tue 12:21:33 AM 31.3731 -89.7611 133° Southeast 146 168 5,000  Level Houston Center
Tue 12:22:34 AM 31.3450 -89.7275 134° Southeast 145 167 5,000  Level Houston Center
Tue 12:23:34 AM 31.3178 -89.6939 133° Southeast 144 166 5,000  Level Houston Center
Tue 12:24:34 AM 31.2908 -89.6606 133° Southeast 142 163 5,000  Level Houston Center
Tue 12:25:35 AM 31.2581 -89.6206 134° Southeast 142 163 5,000  Level Houston Center
Tue 12:26:35 AM 31.2303 -89.5867 134° Southeast 143 165 5,000  Level Houston Center
Tue 12:27:36 AM 31.2025 -89.5519 133° Southeast 145 167 5,000  Level Houston Center
Tue 12:28:36 AM 31.1761 -89.5172 132° Southeast 144 166 5,000  Level Houston Center
Tue 12:29:37 AM 31.1475 -89.4836 135° Southeast 145 167 5,000  Level Houston Center
Tue 12:30:37 AM 31.1197 -89.4497 134° Southeast 145 167 5,000  Level Houston Center
Tue 12:31:38 AM 31.0906 -89.4125 132° Southeast 151 174 5,000  Level Houston Center
Tue 12:32:38 AM 31.0614 -89.3781 135° Southeast 150 173 5,000  Level Houston Center
Tue 12:33:38 AM 31.0317 -89.3433 135° Southeast 151 174 5,000  Level Houston Center
Tue 12:34:39 AM 31.0039 -89.3078 132° Southeast 148 170 5,000  Level Houston Center
Tue 12:35:39 AM 30.9769 -89.2708 130° Southeast 149 171 5,000  Level Houston Center
Tue 12:36:40 AM 30.9606 -89.2261 113° Southeast 150 173 5,000  Level Houston Center
Tue 12:37:40 AM 30.9414 -89.1819 117° Southeast 151 174 5,000  Level Houston Center
Tue 12:38:41 AM 30.9233 -89.1381 116° Southeast 151 174 5,000  Level Houston Center
Tue 12:39:41 AM 30.9047 -89.0958 117° Southeast 148 170 5,000  Level Houston Center
Tue 12:40:41 AM 30.8867 -89.0517 115° Southeast 150 173 5,000  Level Houston Center
Tue 12:41:42 AM 30.8672 -89.0078 117° Southeast 151 174 5,000  Level Houston Center
Tue 12:42:42 AM 30.8489 -88.9633 116° Southeast 152 175 5,000  Level Houston Center
Tue 12:43:43 AM 30.8283 -88.9158 117° Southeast 154 177 5,000  Level Houston Center
Tue 12:44:43 AM 30.8092 -88.8722 117° Southeast 153 176 5,000  Level Houston Center
Tue 12:45:43 AM 30.7897 -88.8281 117° Southeast 154 177 5,000  Level Houston Center
Tue 12:46:44 AM 30.7711 -88.7839 116° Southeast 153 176 5,000  Level Houston Center
Tue 12:47:44 AM 30.7528 -88.7394 116° Southeast 153 176 5,000  Level Houston Center
Tue 12:48:45 AM 30.7342 -88.6956 116° Southeast 151 174 5,000  Level Houston Center
Tue 12:49:45 AM 30.7153 -88.6517 117° Southeast 152 175 5,000  Level Houston Center
Tue 12:50:45 AM 30.6961 -88.6081 117° Southeast 152 175 5,000  Level Houston Center
Tue 12:51:46 AM 30.6769 -88.5639 117° Southeast 152 175 5,000  Level Houston Center
Tue 12:52:46 AM 30.6583 -88.5194 116° Southeast 153 176 5,000  Level Houston Center
Tue 12:53:46 AM 30.6392 -88.4761 117° Southeast 152 175 5,000  Level Houston Center
Tue 12:54:47 AM 30.6211 -88.4322 116° Southeast 151 174 5,000  Level Houston Center
Tue 12:55:47 AM 30.6019 -88.3881 117° Southeast 152 175 5,000  Level Houston Center
Tue 12:56:47 AM 30.5836 -88.3439 116° Southeast 152 175 5,000  Level Houston Center
Tue 12:57:48 AM 30.5642 -88.2997 117° Southeast 154 177 5,000  Level Houston Center
Tue 12:58:48 AM 30.5447 -88.2547 117° Southeast 155 178 5,000 -250 Level Houston Center
Tue 12:59:48 AM 30.5250 -88.2078 116° Southeast 158 182 4,500 -545 Descending Houston Center
Tue 01:00:49 AM 30.5228 -88.1392 92° East 173 199 3,900 -545 Descending Houston Center
Tue 01:01:49 AM 30.5189 -88.0856 95° East 170 196 3,400 -400 Descending Houston Center
Tue 01:02:49 AM 30.5158 -88.0294 94° East 173 199 3,100 -149 Descending Houston Center
Tue 01:03:50 AM 30.5125 -87.9767 94° East 171 197 3,100  Level Houston Center
Tue 01:04:50 AM 30.4864 -87.9411 130° Southeast 155 178 3,100  Level Houston Center
Tue 01:05:50 AM 30.4600 -87.9031 129° Southeast 152 175 3,100  Level Houston Center
Tue 01:06:51 AM 30.4328 -87.8664 131° Southeast 150 173 3,100  Level Houston Center
Tue 01:07:51 AM 30.4067 -87.8297 130° Southeast 149 171 3,100  Level Houston Center
Tue 01:08:51 AM 30.3800 -87.7925 130° Southeast 149 171 3,100 -149 Level Houston Center
Tue 01:09:52 AM 30.3531 -87.7553 130° Southeast 150 173 2,800 -545 Descending Houston Center
Tue 01:10:52 AM 30.3244 -87.7161 130° Southeast 155 178 2,000 -650 Descending Houston Center
Tue 01:11:52 AM 30.3011 -87.6833 130° Southeast 146 168 1,500 -450 Descending Houston Center
Tue 01:12:52 AM 30.2769 -87.6575 137° Southeast 130 150 1,100 -248 Descending Houston Center
Tue 01:13:53 AM 30.2561 -87.6319 133° Southeast 127 146 1,000 -98 Descending Houston Center

Login

Don't have an account? Register now (free) for customized features, flight alerts, and more!